CheckWX is a tool to help pilots better visualize weather data.  It is not intended as a substitute for an official pre-flight weather briefing.

04:28:55 UTC

EFLP METAR
Lappeenranta Airport
Lappeenranta, Finland
Current

39 mins ago

EFLP 250350Z AUTO 01001KT CAVOK 08/01 Q1025
Observed
Apr-25 @ 03:50 UTC
Wind
  • 010° at 1 KTS
Visibility
10,000+ meters
Flight Rules
VFR
Cloud Levels
  • Clear skies
Temperature
C / 46°F
Dewpoint
C / 34°F
Humidity
62%
Altimeter
30.27" Hg
Pressure
1024.92 hPa
Previous

1 hour ago

EFLP 250320Z AUTO 00000KT CAVOK 04/00 Q1025
Observed
Apr-25 @ 03:20 UTC
Visibility
10,000+ meters
Flight Rules
VFR
Cloud Levels
  • Clear skies
Temperature
C / 39°F
Dewpoint
C / 32°F
Humidity
75%
Altimeter
30.27" Hg
Pressure
1024.92 hPa
Previous

2 hours ago

EFLP 250250Z AUTO 35001KT CAVOK 04/M00 Q1025
Observed
Apr-25 @ 02:50 UTC
Wind
  • 350° at 1 KTS
Visibility
10,000+ meters
Flight Rules
VFR
Cloud Levels
  • Clear skies
Temperature
C / 39°F
Dewpoint
C / 32°F
Humidity
75%
Altimeter
30.27" Hg
Pressure
1024.92 hPa